JBU71 KJFK-KSLC
Flight info
| Callsign | JBU71 |
|---|---|
| Flight time | 4h 5m |
| Altitude | 38000 |
| Route | GAYEL Q818 DERLO GEP KP87A KUBKE KD81W DDY CARTR1 |
| Aircraft | A20N/M-SDE2E3FGHIRWXY/LB1 |
Departure
| Time | 2026-05-05 19:10 |
|---|---|
| Airport | John F. Kennedy International Airport (KJFK) |
Arrival
| Time | 2026-05-05 23:16 |
|---|---|
| Airport | Salt Lake City International Airport (KSLC) |
| Time | Latitude | Longitude | Altitude | Speed | Heading |
|---|---|---|---|---|---|
| 2026-05-05 18:56 | 40.64536 | -73.77382 | 13 ft | 0 kts | 357° |
| 2026-05-05 19:03 | 40.64530 | -73.77382 | 49 ft | 2 kts | 357° |
| 2026-05-05 19:04 | 40.64487 | -73.77382 | 21 ft | 7 kts | 22° |
| 2026-05-05 19:04 | 40.64469 | -73.77404 | 21 ft | 0 kts | 82° |
| 2026-05-05 19:06 | 40.64472 | -73.77374 | 20 ft | 12 kts | 83° |
| 2026-05-05 19:06 | 40.64469 | -73.77244 | 21 ft | 15 kts | 107° |
| 2026-05-05 19:07 | 40.64440 | -73.77110 | 21 ft | 16 kts | 104° |
| 2026-05-05 19:07 | 40.64462 | -73.76997 | 20 ft | 9 kts | 14° |
| 2026-05-05 19:07 | 40.64518 | -73.76983 | 19 ft | 9 kts | 31° |
| 2026-05-05 19:07 | 40.64582 | -73.76932 | 20 ft | 12 kts | 31° |
| 2026-05-05 19:08 | 40.64661 | -73.76869 | 20 ft | 14 kts | 31° |
| 2026-05-05 19:08 | 40.64774 | -73.76779 | 21 ft | 24 kts | 31° |
| 2026-05-05 19:08 | 40.64914 | -73.76669 | 21 ft | 19 kts | 31° |
| 2026-05-05 19:08 | 40.64996 | -73.76548 | 21 ft | 18 kts | 96° |
| 2026-05-05 19:09 | 40.64925 | -73.76440 | 23 ft | 15 kts | 171° |
| 2026-05-05 19:09 | 40.64904 | -73.76449 | 21 ft | 0 kts | 207° |
| 2026-05-05 19:09 | 40.64708 | -73.76597 | 22 ft | 65 kts | 211° |
| 2026-05-05 19:09 | 40.64150 | -73.77031 | 21 ft | 118 kts | 212° |
| 2026-05-05 19:10 | 40.63322 | -73.77671 | 125 ft | 151 kts | 208° |
| 2026-05-05 19:10 | 40.62414 | -73.78454 | 557 ft | 161 kts | 207° |
| 2026-05-05 19:10 | 40.61431 | -73.79272 | 1024 ft | 174 kts | 210° |
| 2026-05-05 19:10 | 40.60375 | -73.80138 | 1607 ft | 181 kts | 209° |
| 2026-05-05 19:11 | 40.59317 | -73.80997 | 2291 ft | 179 kts | 211° |
| 2026-05-05 19:11 | 40.58309 | -73.81871 | 3350 ft | 166 kts | 212° |
| 2026-05-05 19:11 | 40.57335 | -73.82724 | 4027 ft | 176 kts | 213° |
| 2026-05-05 19:11 | 40.56162 | -73.83663 | 4040 ft | 222 kts | 213° |
| 2026-05-05 19:12 | 40.54767 | -73.84776 | 4503 ft | 242 kts | 212° |
| 2026-05-05 19:12 | 40.53365 | -73.86016 | 5311 ft | 243 kts | 226° |
| 2026-05-05 19:12 | 40.52513 | -73.87917 | 6211 ft | 246 kts | 253° |
| 2026-05-05 19:12 | 40.52495 | -73.90183 | 7071 ft | 253 kts | 281° |
| 2026-05-05 19:13 | 40.53323 | -73.92213 | 7999 ft | 264 kts | 306° |
| 2026-05-05 19:13 | 40.54794 | -73.93736 | 8895 ft | 273 kts | 319° |
| 2026-05-05 19:13 | 40.56452 | -73.95000 | 9800 ft | 276 kts | 321° |
| 2026-05-05 19:13 | 40.58154 | -73.96236 | 10432 ft | 287 kts | 322° |
| 2026-05-05 19:14 | 40.59948 | -73.97594 | 10674 ft | 309 kts | 321° |
| 2026-05-05 19:14 | 40.61851 | -73.99091 | 10977 ft | 326 kts | 321° |
| 2026-05-05 19:14 | 40.66519 | -74.02834 | 12774 ft | 332 kts | 322° |
| 2026-05-05 19:14 | 40.72568 | -74.07752 | 14797 ft | 343 kts | 322° |
| 2026-05-05 19:15 | 40.80891 | -74.14536 | 17178 ft | 359 kts | 323° |
| 2026-05-05 19:15 | 40.89567 | -74.21621 | 19420 ft | 372 kts | 324° |
| 2026-05-05 19:15 | 40.98506 | -74.28943 | 21509 ft | 384 kts | 324° |
| 2026-05-05 19:15 | 41.07717 | -74.36512 | 23480 ft | 396 kts | 324° |
| 2026-05-05 19:16 | 41.14230 | -74.41878 | 24650 ft | 402 kts | 323° |
| 2026-05-05 19:16 | 41.16617 | -74.43849 | 25080 ft | 404 kts | 323° |
| 2026-05-05 19:16 | 41.18974 | -74.45796 | 25488 ft | 406 kts | 323° |
| 2026-05-05 19:16 | 41.21374 | -74.47781 | 25864 ft | 408 kts | 323° |
| 2026-05-05 19:17 | 41.23793 | -74.49784 | 26237 ft | 410 kts | 323° |
| 2026-05-05 19:17 | 41.26223 | -74.51797 | 26622 ft | 412 kts | 323° |
| 2026-05-05 19:17 | 41.28665 | -74.53821 | 27003 ft | 414 kts | 323° |
| 2026-05-05 19:17 | 41.31116 | -74.55856 | 27358 ft | 416 kts | 323° |
| 2026-05-05 19:18 | 41.33590 | -74.57910 | 27704 ft | 419 kts | 323° |
| 2026-05-05 19:18 | 41.36067 | -74.59969 | 28041 ft | 421 kts | 323° |
| 2026-05-05 19:18 | 41.38555 | -74.62040 | 28367 ft | 423 kts | 323° |
| 2026-05-05 19:18 | 41.41053 | -74.64121 | 28693 ft | 424 kts | 323° |
| 2026-05-05 19:19 | 41.43527 | -74.66183 | 29001 ft | 426 kts | 323° |
| 2026-05-05 19:19 | 41.46050 | -74.68288 | 29278 ft | 428 kts | 323° |
| 2026-05-05 19:19 | 41.48587 | -74.70407 | 29579 ft | 430 kts | 323° |
| 2026-05-05 19:19 | 41.51127 | -74.72531 | 29890 ft | 431 kts | 323° |
| 2026-05-05 19:20 | 41.53679 | -74.74666 | 30203 ft | 432 kts | 324° |
| 2026-05-05 19:20 | 41.56204 | -74.76821 | 30584 ft | 429 kts | 320° |
| 2026-05-05 19:20 | 41.58498 | -74.79327 | 30918 ft | 424 kts | 312° |
| 2026-05-05 19:20 | 41.60471 | -74.82225 | 31327 ft | 418 kts | 305° |
| 2026-05-05 19:21 | 41.62073 | -74.85369 | 31786 ft | 412 kts | 298° |
| 2026-05-05 19:21 | 41.63472 | -74.88676 | 32267 ft | 407 kts | 298° |
| 2026-05-05 19:21 | 41.64870 | -74.91946 | 32727 ft | 403 kts | 298° |
| 2026-05-05 19:21 | 41.66259 | -74.95183 | 33154 ft | 399 kts | 298° |
| 2026-05-05 19:22 | 41.67630 | -74.98386 | 33595 ft | 395 kts | 298° |
| 2026-05-05 19:22 | 41.68985 | -75.01565 | 33986 ft | 392 kts | 298° |
| 2026-05-05 19:22 | 41.70335 | -75.04738 | 34188 ft | 392 kts | 298° |
| 2026-05-05 19:22 | 41.71686 | -75.07918 | 34375 ft | 393 kts | 298° |
| 2026-05-05 19:23 | 41.73036 | -75.11104 | 34531 ft | 394 kts | 297° |
| 2026-05-05 19:23 | 41.74391 | -75.14302 | 34703 ft | 395 kts | 297° |
| 2026-05-05 19:23 | 41.75744 | -75.17501 | 34884 ft | 395 kts | 297° |
| 2026-05-05 19:23 | 41.77099 | -75.20706 | 35039 ft | 396 kts | 297° |
| 2026-05-05 19:24 | 41.78454 | -75.23915 | 35199 ft | 396 kts | 297° |
| 2026-05-05 19:24 | 41.79811 | -75.27132 | 35357 ft | 396 kts | 297° |
| 2026-05-05 19:24 | 41.81170 | -75.30358 | 35495 ft | 397 kts | 297° |
| 2026-05-05 19:24 | 41.82510 | -75.33541 | 35643 ft | 397 kts | 297° |
| 2026-05-05 19:25 | 41.83871 | -75.36777 | 35805 ft | 397 kts | 297° |
| 2026-05-05 19:25 | 41.85229 | -75.40007 | 35940 ft | 398 kts | 297° |
| 2026-05-05 19:25 | 41.86587 | -75.43244 | 36098 ft | 398 kts | 296° |
| 2026-05-05 19:25 | 41.87946 | -75.46485 | 36235 ft | 398 kts | 296° |
| 2026-05-05 19:26 | 41.89302 | -75.49723 | 36385 ft | 398 kts | 296° |
| 2026-05-05 19:26 | 41.90663 | -75.52977 | 36539 ft | 398 kts | 296° |
| 2026-05-05 19:26 | 41.92017 | -75.56219 | 36689 ft | 398 kts | 296° |
| 2026-05-05 19:26 | 41.93374 | -75.59472 | 36808 ft | 398 kts | 296° |
| 2026-05-05 19:27 | 41.94711 | -75.62678 | 36962 ft | 398 kts | 296° |
| 2026-05-05 19:27 | 41.96061 | -75.65920 | 37120 ft | 397 kts | 296° |
| 2026-05-05 19:27 | 41.97412 | -75.69171 | 37226 ft | 398 kts | 296° |
| 2026-05-05 19:27 | 41.98762 | -75.72420 | 37367 ft | 397 kts | 296° |
| 2026-05-05 19:28 | 42.00110 | -75.75671 | 37483 ft | 397 kts | 296° |
| 2026-05-05 19:28 | 42.01454 | -75.78912 | 37607 ft | 397 kts | 296° |
| 2026-05-05 19:28 | 42.02797 | -75.82158 | 37716 ft | 397 kts | 296° |
| 2026-05-05 19:28 | 42.04122 | -75.85360 | 37785 ft | 397 kts | 296° |
| 2026-05-05 19:29 | 42.06794 | -75.91829 | 37782 ft | 394 kts | 296° |
| 2026-05-05 19:29 | 42.09452 | -75.98284 | 37780 ft | 393 kts | 296° |
| 2026-05-05 19:30 | 42.12100 | -76.04725 | 37787 ft | 392 kts | 296° |
| 2026-05-05 19:30 | 42.14726 | -76.11126 | 37775 ft | 391 kts | 296° |
| 2026-05-05 19:31 | 42.17064 | -76.17722 | 37777 ft | 389 kts | 290° |
| 2026-05-05 19:31 | 42.19211 | -76.24414 | 37779 ft | 388 kts | 291° |
| 2026-05-05 19:32 | 42.21357 | -76.31084 | 37781 ft | 387 kts | 290° |
| 2026-05-05 19:32 | 42.23489 | -76.37743 | 37791 ft | 386 kts | 290° |
| 2026-05-05 19:33 | 42.25609 | -76.44385 | 37794 ft | 385 kts | 290° |
| 2026-05-05 19:33 | 42.27717 | -76.51011 | 37796 ft | 383 kts | 290° |
| 2026-05-05 19:34 | 42.29813 | -76.57613 | 37798 ft | 382 kts | 290° |
| 2026-05-05 19:35 | 42.32926 | -76.67450 | 37790 ft | 380 kts | 290° |
| 2026-05-05 19:35 | 42.35001 | -76.74026 | 37806 ft | 380 kts | 290° |
| 2026-05-05 19:36 | 42.37069 | -76.80596 | 37805 ft | 379 kts | 290° |
| 2026-05-05 19:36 | 42.39129 | -76.87158 | 37803 ft | 379 kts | 290° |
| 2026-05-05 19:37 | 42.41172 | -76.93680 | 37781 ft | 375 kts | 290° |
| 2026-05-05 19:37 | 42.43205 | -77.00189 | 37783 ft | 375 kts | 290° |
| 2026-05-05 19:38 | 42.45230 | -77.06686 | 37781 ft | 373 kts | 290° |
| 2026-05-05 19:38 | 42.47241 | -77.13163 | 37789 ft | 373 kts | 290° |
| 2026-05-05 19:39 | 42.49234 | -77.19592 | 37781 ft | 371 kts | 290° |
| 2026-05-05 19:39 | 42.51232 | -77.26055 | 37787 ft | 370 kts | 289° |
| 2026-05-05 19:40 | 42.53216 | -77.32490 | 37781 ft | 369 kts | 289° |
| 2026-05-05 19:40 | 42.54860 | -77.37832 | 37785 ft | 369 kts | 289° |
| 2026-05-05 19:41 | 42.57149 | -77.45291 | 37785 ft | 368 kts | 289° |
| 2026-05-05 19:41 | 42.59456 | -77.52827 | 37787 ft | 367 kts | 289° |
| 2026-05-05 19:42 | 42.69801 | -77.87873 | 37782 ft | 364 kts | 287° |
| 2026-05-05 19:42 | 42.76950 | -78.13648 | 37786 ft | 365 kts | 286° |
| 2026-05-05 19:43 | 42.84061 | -78.39521 | 37781 ft | 364 kts | 286° |
| 2026-05-05 19:43 | 42.86620 | -78.48902 | 37795 ft | 364 kts | 285° |
| 2026-05-05 19:44 | 42.88381 | -78.55375 | 37798 ft | 364 kts | 285° |
| 2026-05-05 19:44 | 42.90030 | -78.61447 | 37920 ft | 358 kts | 286° |
| 2026-05-05 19:44 | 42.90503 | -78.63126 | 38386 ft | 349 kts | 286° |
| 2026-05-05 19:45 | 42.91375 | -78.66172 | 38070 ft | 355 kts | 285° |
| 2026-05-05 19:45 | 42.93025 | -78.72554 | 37434 ft | 359 kts | 282° |
| 2026-05-05 19:46 | 42.94066 | -78.79187 | 37542 ft | 357 kts | 275° |
| 2026-05-05 19:46 | 42.94440 | -78.82517 | 37753 ft | 355 kts | 276° |
| 2026-05-05 19:46 | 42.94838 | -78.85842 | 37808 ft | 356 kts | 276° |
| 2026-05-05 19:47 | 42.95664 | -78.92552 | 37796 ft | 359 kts | 276° |
| 2026-05-05 19:47 | 42.96445 | -78.99268 | 37782 ft | 357 kts | 273° |
| 2026-05-05 19:48 | 42.96799 | -79.06025 | 37784 ft | 357 kts | 271° |
| 2026-05-05 19:48 | 42.97122 | -79.12739 | 37781 ft | 356 kts | 272° |
| 2026-05-05 19:49 | 42.97493 | -79.19495 | 37773 ft | 357 kts | 272° |
| 2026-05-05 19:49 | 42.97873 | -79.26247 | 37775 ft | 357 kts | 272° |
| 2026-05-05 19:50 | 42.98251 | -79.33011 | 37778 ft | 357 kts | 272° |
| 2026-05-05 19:50 | 42.98623 | -79.39769 | 37776 ft | 357 kts | 272° |
| 2026-05-05 19:51 | 42.98992 | -79.46533 | 37781 ft | 357 kts | 272° |
| 2026-05-05 19:51 | 42.99356 | -79.53302 | 37778 ft | 357 kts | 272° |
| 2026-05-05 19:52 | 42.99716 | -79.60065 | 37789 ft | 357 kts | 272° |
| 2026-05-05 19:52 | 43.00072 | -79.66823 | 37792 ft | 357 kts | 272° |
| 2026-05-05 19:53 | 43.00424 | -79.73586 | 37800 ft | 357 kts | 272° |
| 2026-05-05 19:53 | 43.00771 | -79.80344 | 37803 ft | 356 kts | 272° |
| 2026-05-05 19:54 | 43.01112 | -79.87056 | 37803 ft | 356 kts | 272° |
| 2026-05-05 19:54 | 43.01452 | -79.93808 | 37805 ft | 356 kts | 272° |
| 2026-05-05 19:55 | 43.01787 | -80.00561 | 37801 ft | 356 kts | 272° |
| 2026-05-05 19:55 | 43.02119 | -80.07325 | 37804 ft | 356 kts | 272° |
| 2026-05-05 19:56 | 43.02446 | -80.14090 | 37807 ft | 357 kts | 271° |
| 2026-05-05 19:56 | 43.02770 | -80.20855 | 37801 ft | 357 kts | 271° |
| 2026-05-05 19:57 | 43.03088 | -80.27575 | 37803 ft | 356 kts | 271° |
| 2026-05-05 19:57 | 43.03403 | -80.34337 | 37802 ft | 356 kts | 271° |
| 2026-05-05 19:58 | 43.03714 | -80.41093 | 37803 ft | 356 kts | 271° |
| 2026-05-05 19:58 | 43.04022 | -80.47867 | 37807 ft | 357 kts | 271° |
| 2026-05-05 19:59 | 43.04326 | -80.54646 | 37809 ft | 356 kts | 271° |
| 2026-05-05 19:59 | 43.04625 | -80.61395 | 37812 ft | 356 kts | 271° |
| 2026-05-05 20:00 | 43.04920 | -80.68144 | 37816 ft | 356 kts | 271° |
| 2026-05-05 20:00 | 43.05212 | -80.74904 | 37820 ft | 355 kts | 271° |
| 2026-05-05 20:01 | 43.05497 | -80.81611 | 37831 ft | 355 kts | 271° |
| 2026-05-05 20:01 | 43.05780 | -80.88372 | 37843 ft | 356 kts | 271° |
| 2026-05-05 20:02 | 43.06059 | -80.95132 | 37840 ft | 356 kts | 271° |
| 2026-05-05 20:02 | 43.06334 | -81.01880 | 37840 ft | 355 kts | 271° |
| 2026-05-05 20:03 | 43.06780 | -81.08614 | 37847 ft | 357 kts | 276° |
| 2026-05-05 20:03 | 43.07950 | -81.15248 | 37845 ft | 361 kts | 283° |
| 2026-05-05 20:04 | 43.09447 | -81.21790 | 37841 ft | 359 kts | 282° |
| 2026-05-05 20:04 | 43.10921 | -81.28286 | 37839 ft | 360 kts | 283° |
| 2026-05-05 20:05 | 43.12416 | -81.34840 | 37838 ft | 361 kts | 283° |
| 2026-05-05 20:05 | 43.13910 | -81.41392 | 37840 ft | 361 kts | 283° |
| 2026-05-05 20:06 | 43.15403 | -81.47959 | 37838 ft | 361 kts | 282° |
| 2026-05-05 20:06 | 43.16895 | -81.54537 | 37829 ft | 362 kts | 282° |
| 2026-05-05 20:07 | 43.18376 | -81.61095 | 37827 ft | 362 kts | 282° |
| 2026-05-05 20:07 | 43.19864 | -81.67695 | 37827 ft | 362 kts | 282° |
| 2026-05-05 20:08 | 43.21345 | -81.74291 | 37828 ft | 362 kts | 282° |
| 2026-05-05 20:08 | 43.22823 | -81.80905 | 37829 ft | 363 kts | 282° |
| 2026-05-05 20:09 | 43.24287 | -81.87482 | 37829 ft | 363 kts | 282° |
| 2026-05-05 20:09 | 43.25761 | -81.94122 | 37833 ft | 363 kts | 282° |
| 2026-05-05 20:10 | 43.27227 | -82.00749 | 37825 ft | 363 kts | 282° |
| 2026-05-05 20:10 | 43.28691 | -82.07384 | 37827 ft | 363 kts | 282° |
| 2026-05-05 20:11 | 43.30140 | -82.13978 | 37823 ft | 363 kts | 282° |
| 2026-05-05 20:11 | 43.31597 | -82.20624 | 37822 ft | 363 kts | 282° |
| 2026-05-05 20:12 | 43.33052 | -82.27281 | 37824 ft | 363 kts | 282° |
| 2026-05-05 20:12 | 43.34503 | -82.33944 | 37820 ft | 364 kts | 282° |
| 2026-05-05 20:13 | 43.35942 | -82.40570 | 37821 ft | 364 kts | 282° |
| 2026-05-05 20:13 | 43.37391 | -82.47263 | 37822 ft | 364 kts | 282° |
| 2026-05-05 20:14 | 43.38833 | -82.53947 | 37818 ft | 364 kts | 282° |
| 2026-05-05 20:14 | 43.40264 | -82.60597 | 37821 ft | 365 kts | 282° |
| 2026-05-05 20:15 | 43.41700 | -82.67293 | 37822 ft | 365 kts | 282° |
| 2026-05-05 20:15 | 43.43132 | -82.73993 | 37807 ft | 364 kts | 282° |
| 2026-05-05 20:16 | 43.44553 | -82.80659 | 37807 ft | 362 kts | 282° |
| 2026-05-05 20:16 | 43.45968 | -82.87326 | 37806 ft | 362 kts | 282° |
| 2026-05-05 20:17 | 43.47372 | -82.93954 | 37807 ft | 362 kts | 282° |
| 2026-05-05 20:17 | 43.48775 | -83.00605 | 37799 ft | 362 kts | 282° |
| 2026-05-05 20:18 | 43.50175 | -83.07260 | 37794 ft | 361 kts | 282° |
| 2026-05-05 20:18 | 43.51567 | -83.13897 | 37801 ft | 360 kts | 282° |
| 2026-05-05 20:19 | 43.52952 | -83.20526 | 37800 ft | 360 kts | 282° |
| 2026-05-05 20:19 | 43.60606 | -83.57536 | 37918 ft | 354 kts | 282° |
| 2026-05-05 20:19 | 43.63816 | -83.73281 | 37797 ft | 359 kts | 282° |
| 2026-05-05 20:20 | 43.67070 | -83.89346 | 37795 ft | 358 kts | 281° |
| 2026-05-05 20:20 | 43.72391 | -84.15901 | 37799 ft | 359 kts | 281° |
| 2026-05-05 20:21 | 43.77654 | -84.42520 | 37806 ft | 359 kts | 281° |
| 2026-05-05 20:21 | 43.82815 | -84.68984 | 37795 ft | 358 kts | 281° |
| 2026-05-05 20:22 | 43.87943 | -84.95639 | 37805 ft | 358 kts | 281° |
| 2026-05-05 20:22 | 43.92999 | -85.22285 | 37814 ft | 358 kts | 281° |
| 2026-05-05 20:23 | 43.99624 | -85.57771 | 37870 ft | 358 kts | 280° |
| 2026-05-05 20:23 | 44.06057 | -85.92902 | 37835 ft | 359 kts | 280° |
| 2026-05-05 20:24 | 44.10904 | -86.19808 | 37845 ft | 358 kts | 280° |
| 2026-05-05 20:24 | 44.15900 | -86.47970 | 37874 ft | 357 kts | 280° |
| 2026-05-05 20:25 | 44.21152 | -86.78055 | 37837 ft | 358 kts | 279° |
| 2026-05-05 20:25 | 44.25783 | -87.05012 | 37839 ft | 360 kts | 279° |
| 2026-05-05 20:26 | 44.30391 | -87.32252 | 37847 ft | 362 kts | 279° |
| 2026-05-05 20:26 | 44.34957 | -87.59667 | 37844 ft | 362 kts | 279° |
| 2026-05-05 20:27 | 44.36474 | -87.68878 | 37842 ft | 363 kts | 279° |
| 2026-05-05 20:27 | 44.37596 | -87.75721 | 37839 ft | 363 kts | 279° |
| 2026-05-05 20:28 | 44.38721 | -87.82609 | 37835 ft | 363 kts | 278° |
| 2026-05-05 20:28 | 44.39655 | -87.88350 | 37841 ft | 363 kts | 278° |
| 2026-05-05 20:29 | 44.40773 | -87.95243 | 37840 ft | 363 kts | 278° |
| 2026-05-05 20:29 | 44.41887 | -88.02145 | 37842 ft | 364 kts | 278° |
| 2026-05-05 20:30 | 44.42999 | -88.09064 | 37838 ft | 364 kts | 278° |
| 2026-05-05 20:30 | 44.44109 | -88.15996 | 37837 ft | 365 kts | 278° |
| 2026-05-05 20:31 | 44.45208 | -88.22891 | 37836 ft | 365 kts | 278° |
| 2026-05-05 20:31 | 44.46313 | -88.29849 | 37834 ft | 366 kts | 278° |
| 2026-05-05 20:32 | 44.47415 | -88.36818 | 37835 ft | 367 kts | 278° |
| 2026-05-05 20:32 | 44.48515 | -88.43811 | 37835 ft | 368 kts | 278° |
| 2026-05-05 20:33 | 44.49615 | -88.50827 | 37863 ft | 369 kts | 278° |
| 2026-05-05 20:33 | 44.50713 | -88.57862 | 37868 ft | 370 kts | 278° |
| 2026-05-05 20:34 | 44.51805 | -88.64882 | 37883 ft | 371 kts | 278° |
| 2026-05-05 20:34 | 44.52901 | -88.71968 | 37885 ft | 372 kts | 278° |
| 2026-05-05 20:35 | 44.53997 | -88.79080 | 37891 ft | 373 kts | 278° |
| 2026-05-05 20:35 | 44.55090 | -88.86203 | 37889 ft | 374 kts | 278° |
| 2026-05-05 20:36 | 44.56181 | -88.93347 | 37880 ft | 374 kts | 278° |
| 2026-05-05 20:36 | 44.57264 | -89.00468 | 37876 ft | 373 kts | 278° |
| 2026-05-05 20:37 | 44.58344 | -89.07609 | 37870 ft | 374 kts | 278° |
| 2026-05-05 20:37 | 44.59420 | -89.14751 | 37874 ft | 374 kts | 278° |
| 2026-05-05 20:38 | 44.60492 | -89.21895 | 37887 ft | 374 kts | 278° |
| 2026-05-05 20:38 | 44.61553 | -89.29001 | 37888 ft | 374 kts | 278° |
| 2026-05-05 20:39 | 44.62617 | -89.36159 | 37889 ft | 374 kts | 278° |
| 2026-05-05 20:39 | 44.63676 | -89.43317 | 37884 ft | 374 kts | 278° |
| 2026-05-05 20:40 | 44.64730 | -89.50468 | 37891 ft | 374 kts | 278° |
| 2026-05-05 20:40 | 44.65778 | -89.57620 | 37889 ft | 374 kts | 278° |
| 2026-05-05 20:41 | 44.66824 | -89.64783 | 37882 ft | 374 kts | 278° |
| 2026-05-05 20:41 | 44.67857 | -89.71900 | 37877 ft | 374 kts | 278° |
| 2026-05-05 20:42 | 44.68894 | -89.79073 | 37875 ft | 374 kts | 278° |
| 2026-05-05 20:42 | 44.69926 | -89.86246 | 37877 ft | 374 kts | 278° |
| 2026-05-05 20:43 | 44.70955 | -89.93428 | 37886 ft | 375 kts | 278° |
| 2026-05-05 20:43 | 44.71981 | -90.00624 | 37882 ft | 375 kts | 278° |
| 2026-05-05 20:44 | 44.72995 | -90.07780 | 37887 ft | 375 kts | 278° |
| 2026-05-05 20:44 | 44.74015 | -90.14999 | 37887 ft | 376 kts | 278° |
| 2026-05-05 20:45 | 44.75536 | -90.25840 | 37888 ft | 377 kts | 278° |
| 2026-05-05 20:45 | 44.76545 | -90.33077 | 37890 ft | 377 kts | 278° |
| 2026-05-05 20:46 | 44.77551 | -90.40325 | 37895 ft | 377 kts | 278° |
| 2026-05-05 20:46 | 44.78555 | -90.47587 | 37903 ft | 378 kts | 278° |
| 2026-05-05 20:47 | 44.79553 | -90.54855 | 37904 ft | 378 kts | 278° |
| 2026-05-05 20:47 | 44.80542 | -90.62086 | 37910 ft | 379 kts | 278° |
| 2026-05-05 20:48 | 44.81534 | -90.69374 | 37915 ft | 379 kts | 278° |
| 2026-05-05 20:48 | 44.82522 | -90.76671 | 37917 ft | 379 kts | 278° |
| 2026-05-05 20:49 | 44.83507 | -90.83981 | 37920 ft | 379 kts | 278° |
| 2026-05-05 20:49 | 44.84487 | -90.91295 | 37919 ft | 380 kts | 278° |
| 2026-05-05 20:50 | 44.85463 | -90.98610 | 37923 ft | 380 kts | 278° |
| 2026-05-05 20:50 | 44.86428 | -91.05882 | 37918 ft | 380 kts | 278° |
| 2026-05-05 20:51 | 44.87396 | -91.13214 | 37917 ft | 380 kts | 277° |
| 2026-05-05 20:51 | 44.88358 | -91.20541 | 37921 ft | 380 kts | 277° |
| 2026-05-05 20:52 | 44.89317 | -91.27885 | 37917 ft | 380 kts | 277° |
| 2026-05-05 20:52 | 44.90262 | -91.35164 | 37915 ft | 380 kts | 277° |
| 2026-05-05 20:53 | 44.91211 | -91.42504 | 37913 ft | 380 kts | 277° |
| 2026-05-05 20:53 | 44.92155 | -91.49840 | 37912 ft | 380 kts | 277° |
| 2026-05-05 20:54 | 44.93093 | -91.57177 | 37913 ft | 380 kts | 277° |
| 2026-05-05 20:54 | 44.94027 | -91.64518 | 37919 ft | 380 kts | 277° |
| 2026-05-05 20:55 | 44.94958 | -91.71874 | 37917 ft | 380 kts | 277° |
| 2026-05-05 20:55 | 44.95879 | -91.79192 | 37915 ft | 381 kts | 277° |
| 2026-05-05 20:56 | 44.96802 | -91.86567 | 37915 ft | 381 kts | 277° |
| 2026-05-05 20:56 | 44.97720 | -91.93939 | 37916 ft | 381 kts | 277° |
| 2026-05-05 20:57 | 44.98634 | -92.01324 | 37918 ft | 382 kts | 277° |
| 2026-05-05 20:57 | 44.99545 | -92.08723 | 37923 ft | 382 kts | 277° |
| 2026-05-05 20:58 | 45.00445 | -92.16074 | 37926 ft | 382 kts | 277° |
| 2026-05-05 20:58 | 45.01347 | -92.23483 | 37929 ft | 382 kts | 277° |
| 2026-05-05 20:59 | 45.02244 | -92.30889 | 37927 ft | 382 kts | 277° |
| 2026-05-05 20:59 | 45.03137 | -92.38307 | 37923 ft | 383 kts | 277° |
| 2026-05-05 21:00 | 45.04026 | -92.45731 | 37926 ft | 383 kts | 277° |
| 2026-05-05 21:00 | 45.04911 | -92.53169 | 37924 ft | 383 kts | 277° |
| 2026-05-05 21:01 | 45.05787 | -92.60569 | 37925 ft | 384 kts | 277° |
| 2026-05-05 21:01 | 45.06664 | -92.68029 | 37926 ft | 384 kts | 277° |
| 2026-05-05 21:02 | 45.07537 | -92.75494 | 37924 ft | 384 kts | 277° |
| 2026-05-05 21:02 | 45.08402 | -92.82922 | 37928 ft | 385 kts | 277° |
| 2026-05-05 21:03 | 45.09271 | -92.90398 | 37936 ft | 385 kts | 277° |
| 2026-05-05 21:03 | 45.10136 | -92.97886 | 37925 ft | 385 kts | 277° |
| 2026-05-05 21:04 | 45.10998 | -93.05388 | 37919 ft | 386 kts | 277° |
| 2026-05-05 21:04 | 45.11854 | -93.12887 | 37917 ft | 386 kts | 277° |
| 2026-05-05 21:05 | 45.12706 | -93.20388 | 37924 ft | 386 kts | 276° |
| 2026-05-05 21:05 | 45.13548 | -93.27853 | 37930 ft | 386 kts | 276° |
| 2026-05-05 21:06 | 45.13995 | -93.35433 | 37924 ft | 385 kts | 271° |
| 2026-05-05 21:06 | 45.14068 | -93.43025 | 37923 ft | 385 kts | 267° |
| 2026-05-05 21:07 | 45.13629 | -93.50545 | 37928 ft | 385 kts | 264° |
| 2026-05-05 21:07 | 45.13122 | -93.58099 | 37928 ft | 386 kts | 264° |
| 2026-05-05 21:08 | 45.12607 | -93.65668 | 37939 ft | 386 kts | 264° |
| 2026-05-05 21:08 | 45.12080 | -93.73236 | 37939 ft | 386 kts | 264° |
| 2026-05-05 21:09 | 45.11544 | -93.80807 | 37942 ft | 386 kts | 264° |
| 2026-05-05 21:09 | 45.11004 | -93.88337 | 37940 ft | 387 kts | 264° |
| 2026-05-05 21:10 | 45.10454 | -93.95923 | 37939 ft | 387 kts | 264° |
| 2026-05-05 21:10 | 45.09899 | -94.03505 | 37960 ft | 387 kts | 264° |
| 2026-05-05 21:11 | 45.09342 | -94.11051 | 37960 ft | 387 kts | 264° |
| 2026-05-05 21:11 | 45.08776 | -94.18645 | 37960 ft | 387 kts | 264° |
| 2026-05-05 21:12 | 45.08210 | -94.26175 | 37953 ft | 387 kts | 264° |
| 2026-05-05 21:12 | 45.07635 | -94.33752 | 37946 ft | 387 kts | 264° |
| 2026-05-05 21:13 | 45.07055 | -94.41323 | 37944 ft | 387 kts | 264° |
| 2026-05-05 21:13 | 45.06470 | -94.48897 | 37942 ft | 387 kts | 264° |
| 2026-05-05 21:14 | 45.05881 | -94.56464 | 37944 ft | 387 kts | 264° |
| 2026-05-05 21:14 | 45.05290 | -94.63988 | 37942 ft | 387 kts | 263° |
| 2026-05-05 21:15 | 45.04690 | -94.71549 | 37947 ft | 387 kts | 263° |
| 2026-05-05 21:15 | 45.04084 | -94.79132 | 37949 ft | 387 kts | 263° |
| 2026-05-05 21:16 | 45.03475 | -94.86691 | 37955 ft | 387 kts | 263° |
| 2026-05-05 21:16 | 45.02964 | -94.92987 | 37955 ft | 387 kts | 263° |
| 2026-05-05 21:17 | 45.02347 | -95.00522 | 37952 ft | 388 kts | 263° |
| 2026-05-05 21:17 | 45.01723 | -95.08088 | 37955 ft | 388 kts | 263° |
| 2026-05-05 21:18 | 45.01092 | -95.15665 | 37954 ft | 388 kts | 263° |
| 2026-05-05 21:18 | 45.00456 | -95.23244 | 37959 ft | 388 kts | 263° |
| 2026-05-05 21:19 | 44.99815 | -95.30829 | 37962 ft | 388 kts | 263° |
| 2026-05-05 21:19 | 44.99171 | -95.38384 | 37967 ft | 388 kts | 263° |
| 2026-05-05 21:20 | 44.98519 | -95.45972 | 37975 ft | 388 kts | 263° |
| 2026-05-05 21:20 | 44.97863 | -95.53547 | 37976 ft | 388 kts | 263° |
| 2026-05-05 21:21 | 44.97205 | -95.61085 | 37975 ft | 388 kts | 263° |
| 2026-05-05 21:21 | 44.96538 | -95.68677 | 37974 ft | 388 kts | 263° |
| 2026-05-05 21:22 | 44.95865 | -95.76260 | 37974 ft | 388 kts | 263° |
| 2026-05-05 21:22 | 44.95193 | -95.83788 | 37974 ft | 388 kts | 263° |
| 2026-05-05 21:23 | 44.94512 | -95.91356 | 37980 ft | 388 kts | 263° |
| 2026-05-05 21:23 | 44.93826 | -95.98920 | 37998 ft | 388 kts | 263° |
| 2026-05-05 21:24 | 44.93134 | -96.06494 | 37999 ft | 388 kts | 263° |
| 2026-05-05 21:24 | 44.92443 | -96.13996 | 37998 ft | 388 kts | 263° |
| 2026-05-05 21:25 | 44.91742 | -96.21554 | 37995 ft | 388 kts | 263° |
| 2026-05-05 21:25 | 44.91156 | -96.27837 | 37996 ft | 388 kts | 263° |
| 2026-05-05 21:26 | 44.90325 | -96.36672 | 37997 ft | 388 kts | 262° |
| 2026-05-05 21:26 | 44.89610 | -96.44218 | 37994 ft | 388 kts | 262° |
| 2026-05-05 21:27 | 44.89044 | -96.50152 | 37991 ft | 388 kts | 262° |
| 2026-05-05 21:27 | 44.88318 | -96.57696 | 37996 ft | 388 kts | 262° |
| 2026-05-05 21:28 | 44.87590 | -96.65244 | 37998 ft | 388 kts | 262° |
| 2026-05-05 21:28 | 44.86856 | -96.72786 | 37999 ft | 388 kts | 262° |
| 2026-05-05 21:29 | 44.86116 | -96.80330 | 37999 ft | 388 kts | 262° |
| 2026-05-05 21:29 | 44.85371 | -96.87882 | 37998 ft | 389 kts | 262° |
| 2026-05-05 21:30 | 44.84620 | -96.95437 | 37995 ft | 389 kts | 262° |
| 2026-05-05 21:30 | 44.83868 | -97.02946 | 37995 ft | 389 kts | 262° |
| 2026-05-05 21:31 | 44.83106 | -97.10509 | 37992 ft | 390 kts | 262° |
| 2026-05-05 21:31 | 44.82339 | -97.18070 | 37993 ft | 390 kts | 262° |
| 2026-05-05 21:32 | 44.81568 | -97.25624 | 37997 ft | 390 kts | 262° |
| 2026-05-05 21:32 | 44.80793 | -97.33160 | 37998 ft | 390 kts | 262° |
| 2026-05-05 21:33 | 44.80010 | -97.40720 | 38003 ft | 390 kts | 262° |
| 2026-05-05 21:33 | 44.79222 | -97.48281 | 38009 ft | 390 kts | 262° |
| 2026-05-05 21:34 | 44.78428 | -97.55855 | 38017 ft | 390 kts | 262° |
| 2026-05-05 21:34 | 44.77634 | -97.63372 | 38024 ft | 390 kts | 261° |
| 2026-05-05 21:35 | 44.76830 | -97.70937 | 38025 ft | 390 kts | 261° |
| 2026-05-05 21:35 | 44.76020 | -97.78505 | 38026 ft | 391 kts | 261° |
| 2026-05-05 21:36 | 44.75206 | -97.86066 | 38023 ft | 391 kts | 261° |
| 2026-05-05 21:36 | 44.74390 | -97.93596 | 38031 ft | 391 kts | 261° |
| 2026-05-05 21:37 | 44.73565 | -98.01170 | 38031 ft | 392 kts | 261° |
| 2026-05-05 21:37 | 44.72733 | -98.08751 | 38032 ft | 392 kts | 261° |
| 2026-05-05 21:38 | 44.71894 | -98.16343 | 38031 ft | 392 kts | 261° |
| 2026-05-05 21:38 | 44.71052 | -98.23927 | 38034 ft | 393 kts | 261° |
| 2026-05-05 21:39 | 44.70207 | -98.31482 | 38031 ft | 393 kts | 261° |
| 2026-05-05 21:39 | 44.69351 | -98.39097 | 38031 ft | 394 kts | 261° |
| 2026-05-05 21:40 | 44.68489 | -98.46707 | 38033 ft | 395 kts | 261° |
| 2026-05-05 21:40 | 44.67620 | -98.54340 | 38033 ft | 395 kts | 261° |
| 2026-05-05 21:41 | 44.66745 | -98.61974 | 38033 ft | 396 kts | 261° |
| 2026-05-05 21:41 | 44.65870 | -98.69564 | 38034 ft | 396 kts | 261° |
| 2026-05-05 21:42 | 44.64981 | -98.77222 | 38037 ft | 397 kts | 261° |
| 2026-05-05 21:42 | 44.64087 | -98.84884 | 38039 ft | 398 kts | 261° |
| 2026-05-05 21:43 | 44.63187 | -98.92553 | 38043 ft | 398 kts | 261° |
| 2026-05-05 21:43 | 44.62279 | -99.00239 | 38039 ft | 399 kts | 261° |
| 2026-05-05 21:44 | 44.61366 | -99.07921 | 38040 ft | 399 kts | 261° |
| 2026-05-05 21:44 | 44.60452 | -99.15566 | 38049 ft | 399 kts | 261° |
| 2026-05-05 21:45 | 44.59527 | -99.23264 | 38044 ft | 400 kts | 261° |
| 2026-05-05 21:45 | 44.58595 | -99.30967 | 38048 ft | 400 kts | 261° |
| 2026-05-05 21:46 | 44.57663 | -99.38627 | 38050 ft | 400 kts | 261° |
| 2026-05-05 21:46 | 44.56719 | -99.46339 | 38045 ft | 400 kts | 261° |
| 2026-05-05 21:47 | 44.55772 | -99.54035 | 38044 ft | 400 kts | 261° |
| 2026-05-05 21:47 | 44.54820 | -99.61729 | 38046 ft | 400 kts | 260° |
| 2026-05-05 21:48 | 44.53859 | -99.69444 | 38046 ft | 401 kts | 260° |
| 2026-05-05 21:48 | 44.52901 | -99.77111 | 38041 ft | 401 kts | 260° |
| 2026-05-05 21:49 | 44.51938 | -99.84800 | 38036 ft | 401 kts | 260° |
| 2026-05-05 21:49 | 44.50968 | -99.92500 | 38042 ft | 401 kts | 260° |
| 2026-05-05 21:50 | 44.49940 | -100.00143 | 38037 ft | 401 kts | 258° |
| 2026-05-05 21:50 | 44.48543 | -100.07709 | 38033 ft | 401 kts | 256° |
| 2026-05-05 21:51 | 44.47127 | -100.15258 | 38022 ft | 401 kts | 256° |
| 2026-05-05 21:51 | 44.45721 | -100.22767 | 38022 ft | 401 kts | 256° |
| 2026-05-05 21:52 | 44.43575 | -100.34102 | 38018 ft | 401 kts | 256° |
| 2026-05-05 21:53 | 44.42133 | -100.41669 | 38017 ft | 402 kts | 256° |
| 2026-05-05 21:53 | 44.40699 | -100.49168 | 38026 ft | 402 kts | 256° |
| 2026-05-05 21:54 | 44.39248 | -100.56728 | 38042 ft | 402 kts | 256° |
| 2026-05-05 21:54 | 44.37792 | -100.64280 | 38047 ft | 403 kts | 256° |
| 2026-05-05 21:55 | 44.36327 | -100.71850 | 38049 ft | 403 kts | 256° |
| 2026-05-05 21:55 | 44.34858 | -100.79415 | 38059 ft | 404 kts | 256° |
| 2026-05-05 21:56 | 44.33381 | -100.86991 | 38061 ft | 404 kts | 256° |
| 2026-05-05 21:56 | 44.31898 | -100.94564 | 38061 ft | 404 kts | 256° |
| 2026-05-05 21:57 | 44.30410 | -101.02135 | 38061 ft | 405 kts | 256° |
| 2026-05-05 21:57 | 44.28924 | -101.09669 | 38062 ft | 405 kts | 256° |
| 2026-05-05 21:58 | 44.27422 | -101.17253 | 38065 ft | 405 kts | 256° |
| 2026-05-05 21:58 | 44.25915 | -101.24831 | 38062 ft | 405 kts | 256° |
| 2026-05-05 21:59 | 44.24403 | -101.32405 | 38061 ft | 405 kts | 256° |
| 2026-05-05 21:59 | 44.22884 | -101.39988 | 38062 ft | 406 kts | 256° |
| 2026-05-05 22:00 | 44.21179 | -101.47453 | 38057 ft | 407 kts | 251° |
| 2026-05-05 22:00 | 44.19183 | -101.54827 | 38050 ft | 406 kts | 251° |
| 2026-05-05 22:01 | 44.17206 | -101.62205 | 38053 ft | 406 kts | 251° |
| 2026-05-05 22:01 | 44.15221 | -101.69583 | 38051 ft | 406 kts | 251° |
| 2026-05-05 22:02 | 44.13230 | -101.76947 | 38051 ft | 406 kts | 251° |
| 2026-05-05 22:02 | 44.11244 | -101.84270 | 38046 ft | 406 kts | 251° |
| 2026-05-05 22:03 | 44.09245 | -101.91617 | 38043 ft | 406 kts | 251° |
| 2026-05-05 22:03 | 44.07243 | -101.98954 | 38045 ft | 406 kts | 251° |
| 2026-05-05 22:04 | 44.05234 | -102.06292 | 38041 ft | 406 kts | 251° |
| 2026-05-05 22:04 | 44.03557 | -102.12403 | 38041 ft | 406 kts | 251° |
| 2026-05-05 22:05 | 44.01539 | -102.19736 | 38045 ft | 406 kts | 251° |
| 2026-05-05 22:05 | 43.99515 | -102.27067 | 38041 ft | 407 kts | 251° |
| 2026-05-05 22:06 | 43.97483 | -102.34404 | 38038 ft | 407 kts | 251° |
| 2026-05-05 22:06 | 43.95440 | -102.41761 | 38040 ft | 408 kts | 251° |
| 2026-05-05 22:07 | 43.93403 | -102.49073 | 38045 ft | 409 kts | 251° |
| 2026-05-05 22:07 | 43.91345 | -102.56441 | 38046 ft | 409 kts | 251° |
| 2026-05-05 22:08 | 43.89283 | -102.63798 | 38043 ft | 410 kts | 251° |
| 2026-05-05 22:08 | 43.87225 | -102.71123 | 38029 ft | 410 kts | 251° |
| 2026-05-05 22:09 | 43.85147 | -102.78492 | 38028 ft | 411 kts | 251° |
| 2026-05-05 22:09 | 43.83059 | -102.85877 | 38016 ft | 411 kts | 251° |
| 2026-05-05 22:10 | 43.80965 | -102.93263 | 38022 ft | 412 kts | 250° |
| 2026-05-05 22:10 | 43.78865 | -103.00645 | 38022 ft | 412 kts | 250° |
| 2026-05-05 22:11 | 43.76770 | -103.07990 | 38016 ft | 413 kts | 251° |
| 2026-05-05 22:11 | 43.74649 | -103.15400 | 38024 ft | 414 kts | 251° |
| 2026-05-05 22:12 | 43.72523 | -103.22810 | 38009 ft | 414 kts | 251° |
| 2026-05-05 22:12 | 43.70404 | -103.30173 | 37995 ft | 415 kts | 251° |
| 2026-05-05 22:13 | 43.68263 | -103.37592 | 37997 ft | 416 kts | 251° |
| 2026-05-05 22:13 | 43.66115 | -103.45012 | 37999 ft | 416 kts | 251° |
| 2026-05-05 22:14 | 43.63972 | -103.52385 | 37987 ft | 412 kts | 251° |
| 2026-05-05 22:14 | 43.61832 | -103.59730 | 37992 ft | 411 kts | 251° |
| 2026-05-05 22:15 | 43.59702 | -103.67024 | 37991 ft | 409 kts | 251° |
| 2026-05-05 22:15 | 43.57575 | -103.74287 | 37974 ft | 407 kts | 251° |
| 2026-05-05 22:16 | 43.55461 | -103.81485 | 37970 ft | 407 kts | 251° |
| 2026-05-05 22:16 | 43.53332 | -103.88718 | 37977 ft | 407 kts | 251° |
| 2026-05-05 22:17 | 43.51198 | -103.95946 | 37970 ft | 407 kts | 251° |
| 2026-05-05 22:17 | 43.49424 | -104.03266 | 37965 ft | 404 kts | 259° |
| 2026-05-05 22:18 | 43.48158 | -104.10818 | 37964 ft | 403 kts | 259° |
| 2026-05-05 22:18 | 43.46894 | -104.18303 | 37971 ft | 404 kts | 258° |
| 2026-05-05 22:19 | 43.45610 | -104.25832 | 37970 ft | 404 kts | 258° |
| 2026-05-05 22:19 | 43.44319 | -104.33361 | 37965 ft | 404 kts | 258° |
| 2026-05-05 22:20 | 43.43021 | -104.40899 | 37972 ft | 405 kts | 258° |
| 2026-05-05 22:20 | 43.41718 | -104.48438 | 37969 ft | 406 kts | 258° |
| 2026-05-05 22:21 | 43.40405 | -104.55994 | 37975 ft | 406 kts | 258° |
| 2026-05-05 22:21 | 43.39086 | -104.63559 | 37976 ft | 407 kts | 258° |
| 2026-05-05 22:22 | 43.37758 | -104.71144 | 37986 ft | 408 kts | 258° |
| 2026-05-05 22:22 | 43.36430 | -104.78692 | 37990 ft | 409 kts | 258° |
| 2026-05-05 22:23 | 43.35088 | -104.86294 | 37994 ft | 409 kts | 258° |
| 2026-05-05 22:23 | 43.33738 | -104.93909 | 37872 ft | 409 kts | 258° |
| 2026-05-05 22:23 | 43.33068 | -104.97666 | 37981 ft | 401 kts | 258° |
| 2026-05-05 22:24 | 43.32407 | -105.01372 | 37990 ft | 398 kts | 258° |
| 2026-05-05 22:24 | 43.31085 | -105.08772 | 37996 ft | 401 kts | 258° |
| 2026-05-05 22:25 | 43.29761 | -105.16150 | 37996 ft | 399 kts | 258° |
| 2026-05-05 22:25 | 43.28426 | -105.23558 | 37996 ft | 400 kts | 258° |
| 2026-05-05 22:26 | 43.27085 | -105.30962 | 38004 ft | 399 kts | 258° |
| 2026-05-05 22:26 | 43.25744 | -105.38346 | 37997 ft | 398 kts | 258° |
| 2026-05-05 22:27 | 43.24400 | -105.45712 | 37994 ft | 397 kts | 258° |
| 2026-05-05 22:27 | 43.23055 | -105.53056 | 37994 ft | 397 kts | 258° |
| 2026-05-05 22:28 | 43.21706 | -105.60394 | 37995 ft | 396 kts | 258° |
| 2026-05-05 22:28 | 43.20353 | -105.67726 | 37994 ft | 396 kts | 258° |
| 2026-05-05 22:29 | 43.18998 | -105.75040 | 38003 ft | 396 kts | 258° |
| 2026-05-05 22:29 | 43.17645 | -105.82313 | 38004 ft | 396 kts | 258° |
| 2026-05-05 22:30 | 43.16277 | -105.89638 | 38015 ft | 397 kts | 258° |
| 2026-05-05 22:30 | 43.14903 | -105.96968 | 38014 ft | 397 kts | 258° |
| 2026-05-05 22:31 | 43.13530 | -106.04267 | 38036 ft | 398 kts | 258° |
| 2026-05-05 22:31 | 43.12140 | -106.11622 | 38041 ft | 399 kts | 258° |
| 2026-05-05 22:32 | 43.10752 | -106.18947 | 38046 ft | 399 kts | 258° |
| 2026-05-05 22:32 | 43.09352 | -106.26306 | 38046 ft | 400 kts | 258° |
| 2026-05-05 22:33 | 43.07689 | -106.33588 | 38040 ft | 400 kts | 255° |
| 2026-05-05 22:33 | 43.05989 | -106.40827 | 38030 ft | 399 kts | 255° |
| 2026-05-05 22:34 | 43.04300 | -106.48029 | 38027 ft | 400 kts | 255° |
| 2026-05-05 22:34 | 43.02591 | -106.55260 | 38030 ft | 400 kts | 255° |
| 2026-05-05 22:35 | 43.00873 | -106.62498 | 38029 ft | 400 kts | 255° |
| 2026-05-05 22:35 | 42.99146 | -106.69746 | 38034 ft | 401 kts | 255° |
| 2026-05-05 22:36 | 42.97418 | -106.76975 | 38042 ft | 400 kts | 255° |
| 2026-05-05 22:36 | 42.95695 | -106.84163 | 38044 ft | 401 kts | 255° |
| 2026-05-05 22:37 | 42.93778 | -106.92132 | 38060 ft | 401 kts | 255° |
| 2026-05-05 22:37 | 42.88135 | -107.15458 | 37957 ft | 405 kts | 255° |
| 2026-05-05 22:37 | 42.82750 | -107.37455 | 38088 ft | 401 kts | 255° |
| 2026-05-05 22:38 | 42.72418 | -107.79110 | 37981 ft | 398 kts | 254° |
| 2026-05-05 22:38 | 42.65242 | -108.07610 | 37868 ft | 399 kts | 254° |
| 2026-05-05 22:38 | 42.61405 | -108.22708 | 37996 ft | 402 kts | 254° |
| 2026-05-05 22:39 | 42.51153 | -108.62581 | 38011 ft | 401 kts | 254° |
| 2026-05-05 22:39 | 42.49291 | -108.69755 | 38019 ft | 404 kts | 253° |
| 2026-05-05 22:40 | 42.47426 | -108.76914 | 38009 ft | 402 kts | 253° |
| 2026-05-05 22:40 | 42.45569 | -108.84023 | 38009 ft | 403 kts | 253° |
| 2026-05-05 22:41 | 42.43695 | -108.91183 | 38002 ft | 403 kts | 253° |
| 2026-05-05 22:41 | 42.41842 | -108.98334 | 37987 ft | 402 kts | 253° |
| 2026-05-05 22:42 | 42.39947 | -109.05455 | 37975 ft | 402 kts | 253° |
| 2026-05-05 22:42 | 42.38058 | -109.12572 | 37958 ft | 402 kts | 253° |
| 2026-05-05 22:43 | 42.36185 | -109.19638 | 37947 ft | 401 kts | 253° |
| 2026-05-05 22:43 | 42.34296 | -109.26749 | 37929 ft | 402 kts | 253° |
| 2026-05-05 22:43 | 42.33344 | -109.30315 | 37718 ft | 405 kts | 253° |
| 2026-05-05 22:44 | 42.32384 | -109.33910 | 37389 ft | 406 kts | 253° |
| 2026-05-05 22:44 | 42.31414 | -109.37512 | 37043 ft | 408 kts | 253° |
| 2026-05-05 22:44 | 42.30446 | -109.41129 | 36678 ft | 412 kts | 253° |
| 2026-05-05 22:44 | 42.29469 | -109.44784 | 36302 ft | 414 kts | 253° |
| 2026-05-05 22:45 | 42.28486 | -109.48457 | 35988 ft | 417 kts | 253° |
| 2026-05-05 22:45 | 42.27496 | -109.52145 | 35681 ft | 419 kts | 253° |
| 2026-05-05 22:45 | 42.26495 | -109.55862 | 35379 ft | 422 kts | 253° |
| 2026-05-05 22:45 | 42.25497 | -109.59566 | 35074 ft | 425 kts | 253° |
| 2026-05-05 22:46 | 42.24481 | -109.63327 | 34786 ft | 427 kts | 253° |
| 2026-05-05 22:46 | 42.23460 | -109.67100 | 34504 ft | 430 kts | 253° |
| 2026-05-05 22:46 | 42.22429 | -109.70904 | 34209 ft | 433 kts | 253° |
| 2026-05-05 22:46 | 42.21388 | -109.74741 | 33919 ft | 435 kts | 253° |
| 2026-05-05 22:47 | 42.20344 | -109.78583 | 33585 ft | 437 kts | 253° |
| 2026-05-05 22:47 | 42.19307 | -109.82390 | 33254 ft | 437 kts | 253° |
| 2026-05-05 22:47 | 42.18255 | -109.86248 | 32917 ft | 439 kts | 253° |
| 2026-05-05 22:47 | 42.17195 | -109.90130 | 32592 ft | 440 kts | 253° |
| 2026-05-05 22:48 | 42.16132 | -109.94016 | 32268 ft | 441 kts | 253° |
| 2026-05-05 22:48 | 42.15066 | -109.97909 | 31888 ft | 443 kts | 253° |
| 2026-05-05 22:48 | 42.13996 | -110.01807 | 31521 ft | 445 kts | 253° |
| 2026-05-05 22:48 | 42.12932 | -110.05678 | 31166 ft | 446 kts | 253° |
| 2026-05-05 22:49 | 42.11849 | -110.09617 | 30802 ft | 448 kts | 253° |
| 2026-05-05 22:49 | 42.10760 | -110.13569 | 30452 ft | 450 kts | 253° |
| 2026-05-05 22:49 | 42.09670 | -110.17514 | 30116 ft | 449 kts | 253° |
| 2026-05-05 22:49 | 42.08580 | -110.21452 | 29735 ft | 447 kts | 252° |
| 2026-05-05 22:50 | 42.07495 | -110.25368 | 29354 ft | 444 kts | 252° |
| 2026-05-05 22:50 | 42.06430 | -110.29207 | 28952 ft | 441 kts | 252° |
| 2026-05-05 22:50 | 42.05360 | -110.33061 | 28542 ft | 438 kts | 252° |
| 2026-05-05 22:50 | 42.04296 | -110.36886 | 28145 ft | 435 kts | 252° |
| 2026-05-05 22:51 | 42.03235 | -110.40693 | 27753 ft | 432 kts | 252° |
| 2026-05-05 22:51 | 42.02181 | -110.44473 | 27363 ft | 430 kts | 252° |
| 2026-05-05 22:51 | 42.01142 | -110.48188 | 26992 ft | 427 kts | 252° |
| 2026-05-05 22:51 | 42.00100 | -110.51914 | 26614 ft | 424 kts | 251° |
| 2026-05-05 22:52 | 41.99062 | -110.55616 | 26241 ft | 421 kts | 251° |
| 2026-05-05 22:52 | 41.98030 | -110.59293 | 25872 ft | 418 kts | 251° |
| 2026-05-05 22:52 | 41.97006 | -110.62938 | 25506 ft | 416 kts | 251° |
| 2026-05-05 22:52 | 41.95984 | -110.66570 | 25136 ft | 413 kts | 251° |
| 2026-05-05 22:53 | 41.94973 | -110.70158 | 24771 ft | 409 kts | 251° |
| 2026-05-05 22:53 | 41.93966 | -110.73725 | 24412 ft | 407 kts | 251° |
| 2026-05-05 22:53 | 41.93300 | -110.76078 | 24167 ft | 406 kts | 251° |
| 2026-05-05 22:53 | 41.92391 | -110.79651 | 23812 ft | 402 kts | 256° |
| 2026-05-05 22:54 | 41.91724 | -110.84511 | 23314 ft | 398 kts | 265° |
| 2026-05-05 22:54 | 41.91597 | -110.87012 | 23032 ft | 397 kts | 268° |
| 2026-05-05 22:54 | 41.91432 | -110.90713 | 22609 ft | 395 kts | 268° |
| 2026-05-05 22:54 | 41.91263 | -110.94341 | 22205 ft | 393 kts | 268° |
| 2026-05-05 22:55 | 41.91088 | -110.97997 | 21789 ft | 391 kts | 267° |
| 2026-05-05 22:55 | 41.90911 | -111.01633 | 21384 ft | 389 kts | 267° |
| 2026-05-05 22:55 | 41.90733 | -111.05255 | 20999 ft | 388 kts | 267° |
| 2026-05-05 22:55 | 41.90555 | -111.08859 | 20620 ft | 386 kts | 267° |
| 2026-05-05 22:56 | 41.90377 | -111.12452 | 20247 ft | 385 kts | 267° |
| 2026-05-05 22:56 | 41.90198 | -111.16037 | 19881 ft | 383 kts | 268° |
| 2026-05-05 22:56 | 41.90019 | -111.19594 | 19519 ft | 381 kts | 267° |
| 2026-05-05 22:56 | 41.89839 | -111.23131 | 19159 ft | 378 kts | 267° |
| 2026-05-05 22:57 | 41.89663 | -111.26590 | 18811 ft | 376 kts | 267° |
| 2026-05-05 22:57 | 41.89484 | -111.30088 | 18464 ft | 376 kts | 267° |
| 2026-05-05 22:57 | 41.89304 | -111.33594 | 18113 ft | 374 kts | 267° |
| 2026-05-05 22:57 | 41.89124 | -111.37062 | 17806 ft | 370 kts | 267° |
| 2026-05-05 22:58 | 41.88944 | -111.40511 | 17546 ft | 370 kts | 267° |
| 2026-05-05 22:58 | 41.88764 | -111.43960 | 17291 ft | 370 kts | 267° |
| 2026-05-05 22:58 | 41.88582 | -111.47406 | 17042 ft | 369 kts | 267° |
| 2026-05-05 22:58 | 41.88480 | -111.49332 | 16899 ft | 368 kts | 267° |
| 2026-05-05 22:59 | 41.88298 | -111.52766 | 16636 ft | 367 kts | 267° |
| 2026-05-05 22:59 | 41.88065 | -111.56178 | 16385 ft | 367 kts | 263° |
| 2026-05-05 22:59 | 41.87529 | -111.59528 | 16137 ft | 367 kts | 256° |
| 2026-05-05 22:59 | 41.86861 | -111.62836 | 15890 ft | 366 kts | 256° |
| 2026-05-05 23:00 | 41.85563 | -111.69432 | 15410 ft | 365 kts | 256° |
| 2026-05-05 23:00 | 41.84923 | -111.72686 | 15176 ft | 364 kts | 256° |
| 2026-05-05 23:00 | 41.84275 | -111.75963 | 14965 ft | 363 kts | 256° |
| 2026-05-05 23:01 | 41.83627 | -111.79236 | 14737 ft | 362 kts | 256° |
| 2026-05-05 23:01 | 41.82975 | -111.82516 | 14522 ft | 362 kts | 256° |
| 2026-05-05 23:01 | 41.82326 | -111.85779 | 14309 ft | 361 kts | 256° |
| 2026-05-05 23:01 | 41.81688 | -111.88986 | 14093 ft | 360 kts | 256° |
| 2026-05-05 23:02 | 41.81043 | -111.92218 | 13896 ft | 359 kts | 256° |
| 2026-05-05 23:02 | 41.80386 | -111.95435 | 13678 ft | 358 kts | 252° |
| 2026-05-05 23:02 | 41.79228 | -111.98368 | 13446 ft | 357 kts | 232° |
| 2026-05-05 23:02 | 41.77375 | -112.00559 | 13235 ft | 357 kts | 211° |
| 2026-05-05 23:03 | 41.75055 | -112.01718 | 13141 ft | 358 kts | 190° |
| 2026-05-05 23:03 | 41.72575 | -112.02137 | 13072 ft | 359 kts | 186° |
| 2026-05-05 23:03 | 41.70094 | -112.02486 | 13008 ft | 358 kts | 186° |
| 2026-05-05 23:03 | 41.67611 | -112.02834 | 12943 ft | 358 kts | 186° |
| 2026-05-05 23:04 | 41.65133 | -112.03198 | 12847 ft | 357 kts | 186° |
| 2026-05-05 23:04 | 41.62663 | -112.03573 | 12705 ft | 356 kts | 187° |
| 2026-05-05 23:04 | 41.60232 | -112.03949 | 12599 ft | 356 kts | 187° |
| 2026-05-05 23:04 | 41.57773 | -112.04332 | 12485 ft | 355 kts | 187° |
| 2026-05-05 23:05 | 41.55299 | -112.04559 | 12318 ft | 356 kts | 180° |
| 2026-05-05 23:05 | 41.52831 | -112.04424 | 12239 ft | 354 kts | 178° |
| 2026-05-05 23:05 | 41.50368 | -112.04279 | 12142 ft | 354 kts | 178° |
| 2026-05-05 23:05 | 41.47908 | -112.04140 | 12052 ft | 353 kts | 178° |
| 2026-05-05 23:06 | 41.45449 | -112.04004 | 11947 ft | 353 kts | 178° |
| 2026-05-05 23:06 | 41.43027 | -112.03872 | 11839 ft | 351 kts | 178° |
| 2026-05-05 23:06 | 41.40584 | -112.03739 | 11732 ft | 351 kts | 178° |
| 2026-05-05 23:06 | 41.38135 | -112.03605 | 11591 ft | 350 kts | 178° |
| 2026-05-05 23:07 | 41.35700 | -112.03471 | 11457 ft | 349 kts | 178° |
| 2026-05-05 23:07 | 41.33274 | -112.03338 | 11178 ft | 348 kts | 178° |
| 2026-05-05 23:07 | 41.30909 | -112.03208 | 10947 ft | 339 kts | 178° |
| 2026-05-05 23:07 | 41.28596 | -112.03082 | 10815 ft | 326 kts | 178° |
| 2026-05-05 23:08 | 41.26346 | -112.02958 | 10373 ft | 324 kts | 178° |
| 2026-05-05 23:08 | 41.24106 | -112.02820 | 10058 ft | 315 kts | 177° |
| 2026-05-05 23:08 | 41.21949 | -112.02585 | 9680 ft | 304 kts | 175° |
| 2026-05-05 23:08 | 41.19907 | -112.02316 | 9501 ft | 286 kts | 175° |
| 2026-05-05 23:09 | 41.17991 | -112.02050 | 9348 ft | 268 kts | 175° |
| 2026-05-05 23:09 | 41.16167 | -112.01819 | 8957 ft | 264 kts | 176° |
| 2026-05-05 23:09 | 41.14322 | -112.01605 | 8573 ft | 266 kts | 176° |
| 2026-05-05 23:09 | 41.12483 | -112.01391 | 8237 ft | 264 kts | 176° |
| 2026-05-05 23:10 | 41.10676 | -112.01180 | 7894 ft | 263 kts | 176° |
| 2026-05-05 23:10 | 41.08854 | -112.00968 | 7541 ft | 262 kts | 176° |
| 2026-05-05 23:10 | 41.07042 | -112.00757 | 7222 ft | 260 kts | 177° |
| 2026-05-05 23:10 | 41.05240 | -112.00547 | 6896 ft | 259 kts | 177° |
| 2026-05-05 23:11 | 41.03484 | -112.00342 | 6747 ft | 246 kts | 176° |
| 2026-05-05 23:11 | 41.02157 | -112.00187 | 6596 ft | 235 kts | 177° |
| 2026-05-05 23:11 | 41.00571 | -112.00002 | 6326 ft | 226 kts | 177° |
| 2026-05-05 23:11 | 40.99022 | -111.99822 | 6153 ft | 220 kts | 177° |
| 2026-05-05 23:12 | 40.97478 | -111.99644 | 6097 ft | 225 kts | 177° |
| 2026-05-05 23:12 | 40.95931 | -111.99466 | 6005 ft | 223 kts | 176° |
| 2026-05-05 23:12 | 40.94411 | -111.99287 | 5961 ft | 214 kts | 176° |
| 2026-05-05 23:12 | 40.92995 | -111.99120 | 5963 ft | 192 kts | 176° |
| 2026-05-05 23:13 | 40.91741 | -111.98973 | 5980 ft | 168 kts | 176° |
| 2026-05-05 23:13 | 40.90655 | -111.98848 | 5970 ft | 155 kts | 176° |
| 2026-05-05 23:13 | 40.89559 | -111.98721 | 5975 ft | 158 kts | 176° |
| 2026-05-05 23:13 | 40.88465 | -111.98593 | 5870 ft | 159 kts | 176° |
| 2026-05-05 23:14 | 40.87365 | -111.98465 | 5640 ft | 159 kts | 175° |
| 2026-05-05 23:14 | 40.86257 | -111.98336 | 5430 ft | 160 kts | 174° |
| 2026-05-05 23:14 | 40.85145 | -111.98206 | 5204 ft | 161 kts | 174° |
| 2026-05-05 23:14 | 40.84057 | -111.98080 | 4973 ft | 152 kts | 174° |
| 2026-05-05 23:15 | 40.83019 | -111.97959 | 4757 ft | 148 kts | 174° |
| 2026-05-05 23:15 | 40.82015 | -111.97842 | 4550 ft | 143 kts | 174° |
| 2026-05-05 23:15 | 40.81023 | -111.97729 | 4345 ft | 139 kts | 174° |
| 2026-05-05 23:15 | 40.80115 | -111.97618 | 4242 ft | 113 kts | 175° |
| 2026-05-05 23:16 | 40.79544 | -111.97552 | 4233 ft | 55 kts | 173° |
| 2026-05-05 23:16 | 40.79359 | -111.97535 | 4233 ft | 0 kts | 178° |
| 2026-05-05 23:16 | 40.79255 | -111.97536 | 4235 ft | 33 kts | 191° |
| 2026-05-05 23:16 | 40.79212 | -111.97647 | 4234 ft | 15 kts | 272° |
| 2026-05-05 23:17 | 40.79206 | -111.97799 | 4235 ft | 18 kts | 265° |
| 2026-05-05 23:17 | 40.79136 | -111.97878 | 4236 ft | 15 kts | 179° |
| 2026-05-05 23:17 | 40.79034 | -111.97894 | 4236 ft | 15 kts | 220° |
| 2026-05-05 23:17 | 40.79011 | -111.98023 | 4234 ft | 16 kts | 265° |
| 2026-05-05 23:18 | 40.79032 | -111.98170 | 4233 ft | 18 kts | 290° |
| 2026-05-05 23:18 | 40.79054 | -111.98342 | 4230 ft | 21 kts | 269° |
| 2026-05-05 23:18 | 40.79054 | -111.98347 | 4227 ft | 0 kts | 269° |